createdAt,value
2022-09-12T00:03:36.034Z,12.97
2022-09-12T00:08:41.764Z,13.55
2022-09-12T00:13:50.420Z,13.73
2022-09-12T00:18:56.128Z,13.03
2022-09-12T00:24:01.748Z,14.67
2022-09-12T00:29:09.995Z,13.30
2022-09-12T00:34:22.402Z,12.45
2022-09-12T00:39:28.058Z,13.10
2022-09-12T00:44:56.689Z,13.32
2022-09-12T00:50:07.708Z,12.43
2022-09-12T00:55:15.902Z,12.07
2022-09-12T01:00:26.438Z,12.13
2022-09-12T01:05:34.108Z,12.25
2022-09-12T01:10:42.033Z,11.90
2022-09-12T01:15:50.132Z,10.60
2022-09-12T01:21:18.122Z,11.40
2022-09-12T01:26:55.903Z,12.25
2022-09-12T01:32:08.498Z,11.63
2022-09-12T01:37:21.562Z,11.10
2022-09-12T01:42:36.946Z,10.93
2022-09-12T01:47:49.198Z,11.40
2022-09-12T01:52:58.906Z,11.15
2022-09-12T01:58:09.519Z,10.95
2022-09-12T02:03:20.859Z,11.10
2022-09-12T02:08:31.733Z,12.10
2022-09-12T02:13:41.749Z,11.75
2022-09-12T02:18:56.065Z,10.30
2022-09-12T02:24:05.490Z,10.23
2022-09-12T02:29:10.966Z,11.48
2022-09-12T02:34:35.476Z,10.85
2022-09-12T02:39:44.973Z,10.57
2022-09-12T02:44:50.928Z,10.63
2022-09-12T02:50:01.770Z,11.38
2022-09-12T02:55:11.160Z,11.07
2022-09-12T03:00:17.746Z,10.80
2022-09-12T03:05:31.297Z,10.02
2022-09-12T03:10:46.449Z,11.02
2022-09-12T03:16:05.844Z,10.63
2022-09-12T03:21:20.958Z,9.55
2022-09-12T03:26:31.248Z,9.45
2022-09-12T03:31:37.539Z,9.07
2022-09-12T03:36:45.649Z,8.77
2022-09-12T03:41:51.104Z,9.30
2022-09-12T03:46:56.689Z,10.53
2022-09-12T03:52:05.501Z,9.82
2022-09-12T03:57:10.915Z,9.77
2022-09-12T04:02:16.157Z,8.47
2022-09-12T04:07:24.413Z,8.90
2022-09-12T04:12:30.739Z,9.07
2022-09-12T04:17:37.045Z,8.80
2022-09-12T04:22:45.312Z,8.85
2022-09-12T04:27:51.139Z,9.43
2022-09-12T04:32:56.617Z,9.17
2022-09-12T04:38:04.833Z,8.60
2022-09-12T04:43:14.409Z,8.48
2022-09-12T04:48:20.103Z,8.47
2022-09-12T04:53:28.348Z,8.03
2022-09-12T04:58:34.626Z,8.65
2022-09-12T05:03:41.226Z,8.90
2022-09-12T05:08:50.119Z,8.37
2022-09-12T05:13:55.820Z,8.15
2022-09-12T05:19:02.391Z,8.02
2022-09-12T05:24:10.301Z,8.53
2022-09-12T05:29:16.153Z,8.30
2022-09-12T05:34:21.579Z,8.40
2022-09-12T05:39:29.867Z,8.17
2022-09-12T05:44:35.498Z,7.57
2022-09-12T05:49:41.905Z,7.50
2022-09-12T05:54:51.754Z,8.40
2022-09-12T05:59:57.009Z,7.13
2022-09-12T06:05:02.550Z,7.50
2022-09-12T06:10:12.075Z,7.40
2022-09-12T06:15:18.600Z,7.28
2022-09-12T06:20:23.784Z,6.40
2022-09-12T06:25:33.076Z,6.83
2022-09-12T06:30:38.372Z,6.80
2022-09-12T06:35:44.071Z,6.45
2022-09-12T06:40:52.529Z,6.80
2022-09-12T06:45:58.059Z,6.20
2022-09-12T06:51:05.622Z,6.05
2022-09-12T06:56:15.565Z,6.77
2022-09-12T07:01:22.773Z,6.07
2022-09-12T07:06:32.839Z,6.25
2022-09-12T07:11:42.726Z,6.00
2022-09-12T07:16:48.571Z,6.03
2022-09-12T07:21:58.543Z,6.50
2022-09-12T07:27:07.243Z,5.85
2022-09-12T07:32:13.473Z,6.37
2022-09-12T07:37:19.014Z,6.72
2022-09-12T07:42:27.185Z,5.55
2022-09-12T07:47:32.624Z,6.37
2022-09-12T07:52:38.940Z,5.90
2022-09-12T07:57:47.237Z,6.15
2022-09-12T08:02:54.358Z,6.10
2022-09-12T08:08:00.730Z,5.97
2022-09-12T08:13:10.792Z,6.55
2022-09-12T08:18:16.153Z,6.43
2022-09-12T08:23:23.677Z,6.90
2022-09-12T08:28:32.541Z,6.97
2022-09-12T08:33:38.973Z,6.55
2022-09-12T08:38:46.422Z,6.73
2022-09-12T08:44:10.067Z,6.93
2022-09-12T08:49:18.159Z,6.03
2022-09-12T08:54:29.171Z,6.00
2022-09-12T08:59:41.749Z,6.47
2022-09-12T09:04:53.654Z,5.88
2022-09-12T09:10:09.609Z,6.03
2022-09-12T09:15:29.890Z,5.00
2022-09-12T09:20:40.386Z,5.78
2022-09-12T09:25:54.909Z,5.47
2022-09-12T09:31:03.377Z,5.83
2022-09-12T09:36:19.682Z,5.23
2022-09-12T09:41:48.463Z,4.78
2022-09-12T09:46:59.400Z,4.57
2022-09-12T09:52:08.222Z,4.77
2022-09-12T09:57:44.779Z,5.03
2022-09-12T10:03:06.270Z,4.13
2022-09-12T10:08:15.114Z,4.67
2022-09-12T10:13:36.197Z,4.22
2022-09-12T10:18:45.414Z,4.43
2022-09-12T10:23:55.863Z,3.63
2022-09-12T10:29:07.731Z,3.80
2022-09-12T10:34:25.893Z,3.88
2022-09-12T10:39:31.428Z,3.75
2022-09-12T10:44:37.777Z,3.10
2022-09-12T10:49:46.005Z,3.05
2022-09-12T10:54:52.538Z,2.50
2022-09-12T11:00:14.705Z,2.33
2022-09-12T11:05:37.090Z,2.88
2022-09-12T11:10:51.961Z,2.30
2022-09-12T11:16:13.845Z,2.20
2022-09-12T11:21:36.971Z,2.23
2022-09-12T11:26:58.739Z,1.80
2022-09-12T11:32:34.163Z,2.10
2022-09-12T11:38:02.658Z,2.07
2022-09-12T11:43:18.607Z,2.15
2022-09-12T11:48:37.996Z,2.20
2022-09-12T11:53:48.416Z,1.97
2022-09-12T11:58:58.742Z,1.90
2022-09-12T12:04:09.206Z,2.80
2022-09-12T12:09:17.845Z,2.60
2022-09-12T12:14:26.755Z,2.40
2022-09-12T12:19:37.744Z,2.30
2022-09-12T12:25:29.902Z,2.08
2022-09-12T12:31:03.967Z,2.37
2022-09-12T12:36:12.745Z,2.58
2022-09-12T12:41:50.685Z,2.13
2022-09-12T12:47:19.837Z,2.10
2022-09-12T12:52:31.901Z,2.05
2022-09-12T12:57:50.463Z,2.20
2022-09-12T13:03:01.602Z,1.90
2022-09-12T13:08:12.987Z,1.77
2022-09-12T13:13:28.345Z,1.83
2022-09-12T13:18:43.631Z,1.80
2022-09-12T13:24:02.644Z,2.10
2022-09-12T13:29:19.002Z,2.00
2022-09-12T13:34:28.476Z,1.92
2022-09-12T13:39:43.979Z,1.70
2022-09-12T13:44:55.948Z,1.95
2022-09-12T13:50:02.243Z,1.83
2022-09-12T13:55:11.798Z,1.60
2022-09-12T14:00:22.521Z,1.43
2022-09-12T14:05:29.884Z,1.85
2022-09-12T14:10:38.021Z,1.90
2022-09-12T14:15:48.305Z,1.73
2022-09-12T14:20:57.266Z,1.88
2022-09-12T14:26:09.477Z,2.00
2022-09-12T14:31:27.788Z,2.23
2022-09-12T14:36:37.099Z,1.90
2022-09-12T14:41:44.680Z,2.42
2022-09-12T14:46:53.604Z,2.07
2022-09-12T14:52:01.240Z,2.10
2022-09-12T14:57:10.242Z,1.90
2022-09-12T15:02:32.905Z,2.28
2022-09-12T15:07:40.146Z,1.90
2022-09-12T15:12:45.684Z,2.53
2022-09-12T15:17:54.454Z,2.40
2022-09-12T15:22:59.811Z,3.10
2022-09-12T15:28:09.130Z,2.92
2022-09-12T15:33:17.142Z,2.53
2022-09-12T15:38:26.530Z,2.50
2022-09-12T15:43:32.735Z,2.33
2022-09-12T15:48:40.972Z,2.47
2022-09-12T15:53:47.556Z,2.20
2022-09-12T15:59:00.836Z,2.30
2022-09-12T16:04:23.680Z,2.78
2022-09-12T16:09:36.746Z,2.80
2022-09-12T16:14:42.888Z,2.30
2022-09-12T16:19:51.477Z,2.25
2022-09-12T16:24:57.393Z,2.53
2022-09-12T16:30:08.232Z,2.47
2022-09-12T16:35:16.859Z,2.57
2022-09-12T16:40:23.617Z,2.47
2022-09-12T16:45:29.463Z,2.15
2022-09-12T16:50:39.879Z,2.33
2022-09-12T16:55:51.540Z,2.42
2022-09-12T17:01:04.125Z,1.90
2022-09-12T17:06:15.405Z,2.10
2022-09-12T17:11:23.272Z,1.90
2022-09-12T17:16:29.551Z,2.33
2022-09-12T17:21:38.907Z,2.27
2022-09-12T17:26:44.942Z,2.00
2022-09-12T17:31:50.601Z,2.20
2022-09-12T17:36:58.731Z,1.92
2022-09-12T17:42:03.959Z,2.17
2022-09-12T17:47:09.780Z,2.30
2022-09-12T17:52:17.918Z,2.35
2022-09-12T17:57:23.756Z,2.70
2022-09-12T18:02:32.957Z,2.30
2022-09-12T18:07:44.193Z,2.75
2022-09-12T18:12:51.007Z,2.57
2022-09-12T18:17:57.120Z,2.40
2022-09-12T18:23:05.326Z,2.85
2022-09-12T18:28:10.858Z,3.00
2022-09-12T18:33:16.809Z,2.53
2022-09-12T18:38:29.598Z,2.85
2022-09-12T18:43:35.617Z,2.60
2022-09-12T18:48:41.819Z,3.07
2022-09-12T18:53:52.395Z,3.00
2022-09-12T18:58:59.440Z,2.55
2022-09-12T19:04:06.211Z,2.60
2022-09-12T19:09:15.936Z,2.80
2022-09-12T19:14:22.879Z,2.60
2022-09-12T19:19:28.114Z,2.50
2022-09-12T19:24:36.096Z,2.40
2022-09-12T19:29:42.041Z,2.63
2022-09-12T19:34:47.682Z,2.30
2022-09-12T19:39:55.519Z,3.37
2022-09-12T19:45:03.984Z,2.92
2022-09-12T19:50:10.454Z,2.88
2022-09-12T19:55:18.513Z,3.20
2022-09-12T20:00:24.495Z,2.73
2022-09-12T20:05:30.390Z,2.70
2022-09-12T20:10:38.520Z,2.80
2022-09-12T20:15:44.555Z,2.70
2022-09-12T20:20:49.805Z,2.60
2022-09-12T20:26:04.303Z,2.83
2022-09-12T20:31:13.218Z,2.73
2022-09-12T20:36:20.546Z,2.80
2022-09-12T20:41:30.425Z,2.72
2022-09-12T20:46:36.171Z,2.80
2022-09-12T20:51:41.885Z,2.50
2022-09-12T20:56:49.712Z,3.05
2022-09-12T21:01:55.358Z,2.58
2022-09-12T21:07:00.935Z,2.17
2022-09-12T21:12:09.247Z,2.60
2022-09-12T21:17:14.807Z,2.65
2022-09-12T21:22:20.045Z,2.80
2022-09-12T21:27:28.107Z,2.42
2022-09-12T21:32:35.722Z,2.45
2022-09-12T21:37:41.385Z,3.03
2022-09-12T21:42:51.402Z,2.57
2022-09-12T21:47:57.367Z,2.50
2022-09-12T21:53:02.812Z,2.50
2022-09-12T21:58:10.910Z,2.30
2022-09-12T22:03:17.111Z,2.50
2022-09-12T22:08:22.562Z,2.78
2022-09-12T22:13:32.532Z,2.57
2022-09-12T22:18:38.814Z,2.60
2022-09-12T22:23:57.452Z,2.53
2022-09-12T22:29:05.240Z,2.40
2022-09-12T22:34:10.766Z,2.40
2022-09-12T22:39:16.200Z,2.50
2022-09-12T22:44:24.459Z,2.20
2022-09-12T22:49:29.725Z,2.70
2022-09-12T22:54:35.317Z,3.08
2022-09-12T22:59:43.710Z,2.35
2022-09-12T23:04:49.463Z,2.87
2022-09-12T23:09:55.166Z,2.83
2022-09-12T23:15:03.131Z,2.80
2022-09-12T23:20:09.269Z,2.40
2022-09-12T23:25:15.278Z,2.40
2022-09-12T23:30:24.673Z,2.58
2022-09-12T23:35:30.784Z,2.83
2022-09-12T23:40:36.273Z,2.60
2022-09-12T23:45:44.443Z,2.70
2022-09-12T23:50:50.883Z,2.70
2022-09-12T23:55:56.370Z,2.57
